Time;durP1;ratioP1;P1;durP2;ratioP2;P2;SDS_P1;SDS_P2;PMS_P1;PMS_P2;Temp;Humidity;BMP_temperature;BMP_pressure;BME280_temperature;BME280_humidity;BME280_pressure;Samples;Min_cycle;Max_cycle;Signal;HPM_P1;HPM_P2
2022/01/12 00:01:05;;;;;;;4.80;3.90;;;16.60;42.10;;;;;;5077110;28;20218;-72
2022/01/12 00:03:32;;;;;;;5.22;4.28;;;16.60;41.90;;;;;;5076876;28;20255;-73
2022/01/12 00:06:01;;;;;;;4.55;3.97;;;16.60;42.10;;;;;;5095016;28;20267;-73
2022/01/12 00:08:28;;;;;;;4.05;3.65;;;16.50;41.90;;;;;;5094756;28;20229;-74
2022/01/12 00:10:56;;;;;;;5.15;4.10;;;16.50;42.00;;;;;;5077129;28;20693;-75
2022/01/12 00:13:24;;;;;;;4.40;4.00;;;16.40;41.90;;;;;;5076584;28;20194;-73
2022/01/12 00:15:51;;;;;;;5.90;4.18;;;16.40;41.90;;;;;;5076501;28;20212;-72
2022/01/12 00:18:18;;;;;;;4.95;4.28;;;16.40;42.00;;;;;;5076262;28;20312;-75
2022/01/12 00:20:45;;;;;;;4.30;3.80;;;16.40;42.60;;;;;;5076417;28;20186;-72
2022/01/12 00:23:14;;;;;;;5.68;4.13;;;16.30;42.00;;;;;;5094268;28;20186;-72
2022/01/12 00:25:58;;;;;;;5.25;4.25;;;16.30;41.90;;;;;;5076217;28;20283;-71
2022/01/12 00:33:54;;;;;;;5.55;3.85;;;16.20;42.10;;;;;;5076083;28;20190;-73
2022/01/12 00:36:21;;;;;;;4.35;3.83;;;16.30;42.30;;;;;;5075840;28;20194;-73
2022/01/12 00:38:49;;;;;;;4.00;3.60;;;16.10;42.20;;;;;;5076301;28;20221;-75
2022/01/12 00:41:17;;;;;;;4.50;3.47;;;16.20;42.30;;;;;;5094269;28;20231;-73
2022/01/12 00:43:46;;;;;;;4.72;3.80;;;16.20;42.80;;;;;;5076456;28;20198;-75
2022/01/12 00:46:13;;;;;;;3.60;3.30;;;16.10;42.10;;;;;;5094474;28;20244;-71
2022/01/12 00:48:41;;;;;;;4.80;3.60;;;16.20;42.30;;;;;;5076653;28;20594;-71
2022/01/12 00:51:10;;;;;;;4.15;3.70;;;16.10;42.10;;;;;;5076202;28;20202;-74
2022/01/12 00:53:37;;;;;;;4.15;3.75;;;16.10;42.20;;;;;;5093767;28;20198;-75
2022/01/12 00:56:06;;;;;;;3.95;3.55;;;16.10;42.30;;;;;;5075456;28;20646;-71
2022/01/12 00:58:33;;;;;;;4.10;3.40;;;16.10;42.40;;;;;;5075279;28;20238;-74
2022/01/12 01:01:01;;;;;;;4.22;3.38;;;16.00;42.10;;;;;;5075306;28;20204;-75
2022/01/12 01:03:29;;;;;;;4.82;3.72;;;16.00;42.80;;;;;;5093490;28;20187;-75
2022/01/12 01:05:57;;;;;;;3.95;3.55;;;16.00;42.20;;;;;;5075101;28;20213;-74
2022/01/12 01:08:25;;;;;;;3.90;3.50;;;15.90;42.10;;;;;;5075170;28;20316;-71
2022/01/12 01:10:54;;;;;;;3.50;3.20;;;15.90;42.30;;;;;;5075021;28;20194;-75
2022/01/12 01:13:28;;;;;;;4.03;3.58;;;15.90;42.30;;;;;;5093756;28;20360;-71
2022/01/12 01:16:06;;;;;;;3.72;3.22;;;15.90;42.10;;;;;;5075146;28;20235;-72
2022/01/12 01:26:47;;;;;;;4.88;3.58;;;15.80;42.90;;;;;;5074819;28;20594;-74
2022/01/12 01:29:17;;;;;;;3.67;3.10;;;15.80;42.40;;;;;;5075301;28;20614;-73
2022/01/12 01:31:45;;;;;;;4.07;3.70;;;15.80;42.30;;;;;;5093340;28;20190;-73
2022/01/12 01:34:14;;;;;;;3.83;3.45;;;15.80;42.30;;;;;;5075444;28;20194;-75
2022/01/12 01:36:43;;;;;;;3.92;3.10;;;15.80;42.20;;;;;;5075205;28;20266;-75
2022/01/12 01:39:12;;;;;;;3.78;3.35;;;15.70;42.40;;;;;;5076084;28;20357;-71
2022/01/12 01:41:41;;;;;;;4.72;3.50;;;15.70;42.40;;;;;;5074687;28;20230;-71
2022/01/12 01:55:24;;;;;;;3.65;3.03;;;15.60;42.30;;;;;;5074581;28;20187;-71
2022/01/12 01:57:52;;;;;;;3.47;3.17;;;15.60;42.40;;;;;;5074496;28;20245;-71
2022/01/12 02:00:22;;;;;;;3.65;3.35;;;15.60;42.40;;;;;;5074639;28;20194;-71
2022/01/12 02:03:00;;;;;;;4.13;3.65;;;15.60;42.30;;;;;;5074450;28;20626;-73
2022/01/12 02:05:38;;;;;;;3.50;3.20;;;15.60;42.30;;;;;;5074651;28;20255;-71
2022/01/12 02:08:06;;;;;;;3.70;3.28;;;15.50;42.20;;;;;;5074695;28;20267;-70
2022/01/12 02:10:37;;;;;;;3.80;3.33;;;15.50;42.30;;;;;;5075575;28;20194;-71
2022/01/12 02:13:04;;;;;;;4.38;3.63;;;15.50;42.40;;;;;;5078363;28;20198;-71
2022/01/12 02:15:33;;;;;;;3.67;3.38;;;15.50;42.20;;;;;;5078557;28;20228;-73
2022/01/12 02:18:12;;;;;;;3.80;3.40;;;15.50;42.40;;;;;;5078443;28;20214;-73
2022/01/12 02:40:08;;;;;;;4.20;3.45;;;15.30;42.30;;;;;;5078444;28;20194;-71
2022/01/12 02:42:39;;;;;;;4.28;3.15;;;15.30;42.40;;;;;;5078488;28;20202;-69
2022/01/12 02:50:44;;;;;;;3.80;3.35;;;15.30;42.40;;;;;;5078751;28;20218;-71
2022/01/12 02:55:59;;;;;;;4.72;3.40;;;15.30;42.40;;;;;;5096274;28;20181;-71
2022/01/12 02:58:27;;;;;;;3.88;3.47;;;15.30;42.40;;;;;;5078304;28;20210;-73
2022/01/12 03:01:23;;;;;;;3.40;3.10;;;15.20;42.20;;;;;;5077735;28;20299;-73
2022/01/12 03:03:52;;;;;;;3.88;3.47;;;15.20;42.40;;;;;;5095911;28;20563;-70
2022/01/12 03:06:23;;;;;;;3.60;3.30;;;15.20;42.40;;;;;;5096167;28;20239;-73
2022/01/12 03:08:53;;;;;;;3.63;3.33;;;15.20;42.20;;;;;;5077712;28;20214;-70
2022/01/12 03:11:21;;;;;;;3.63;3.33;;;15.20;42.20;;;;;;5077711;28;20218;-72
2022/01/12 03:13:51;;;;;;;4.20;3.63;;;15.10;42.20;;;;;;5077483;28;20259;-72
2022/01/12 03:16:22;;;;;;;2.85;2.65;;;15.10;42.20;;;;;;5077383;28;20220;-73
2022/01/12 03:18:49;;;;;;;3.70;3.00;;;15.20;42.20;;;;;;5077572;28;20275;-73
2022/01/12 03:21:19;;;;;;;3.60;3.30;;;15.10;42.20;;;;;;5077187;28;20247;-71
2022/01/12 03:23:46;;;;;;;3.45;3.10;;;15.10;42.40;;;;;;5076462;28;20198;-69
2022/01/12 03:26:15;;;;;;;3.35;3.05;;;15.10;42.20;;;;;;5076980;28;20202;-70
2022/01/12 03:28:43;;;;;;;3.47;3.17;;;15.10;42.20;;;;;;5077316;28;20263;-72
2022/01/12 03:31:17;;;;;;;3.72;3.08;;;15.10;42.30;;;;;;5077246;28;20657;-71
2022/01/12 03:36:41;;;;;;;3.50;3.20;;;15.00;42.30;;;;;;5074391;28;20216;-72
2022/01/12 03:39:12;;;;;;;3.28;3.00;;;15.00;42.30;;;;;;5077339;28;20279;-73
2022/01/12 03:41:43;;;;;;;3.22;2.92;;;15.00;42.20;;;;;;5077144;28;20201;-70
2022/01/12 03:44:12;;;;;;;3.10;2.90;;;15.00;42.30;;;;;;5077365;28;20247;-69
2022/01/12 03:46:44;;;;;;;3.33;3.03;;;15.00;42.30;;;;;;5076774;28;20218;-73
2022/01/12 03:49:13;;;;;;;3.40;3.10;;;15.00;42.40;;;;;;5076544;28;20210;-72
2022/01/12 03:51:40;;;;;;;3.28;2.92;;;15.00;42.30;;;;;;5077218;28;20190;-70
2022/01/12 03:54:09;;;;;;;3.00;2.80;;;14.90;42.20;;;;;;5076710;28;20194;-70
2022/01/12 03:56:36;;;;;;;3.35;3.05;;;14.90;42.30;;;;;;5076891;28;20190;-69
2022/01/12 03:59:04;;;;;;;3.50;3.20;;;14.90;42.30;;;;;;5076536;28;20217;-68
2022/01/12 04:01:32;;;;;;;3.58;3.28;;;14.90;42.10;;;;;;5076569;28;20642;-71
2022/01/12 04:04:06;;;;;;;3.92;3.55;;;14.90;42.40;;;;;;5076617;28;20609;-71
2022/01/12 04:09:18;;;;;;;3.33;3.03;;;14.90;42.30;;;;;;5076460;28;20213;-69
2022/01/12 04:11:46;;;;;;;3.50;3.20;;;14.80;42.20;;;;;;5076422;28;20281;-71
2022/01/12 04:14:14;;;;;;;3.10;2.88;;;14.80;42.20;;;;;;5076420;28;20201;-71
2022/01/12 04:16:41;;;;;;;3.30;3.03;;;14.80;42.20;;;;;;5076554;28;20225;-70
2022/01/12 04:19:09;;;;;;;3.20;3.00;;;14.80;42.30;;;;;;5076480;28;20743;-71
2022/01/12 04:21:42;;;;;;;3.55;3.25;;;14.80;42.40;;;;;;5076666;28;20194;-71
2022/01/12 04:24:10;;;;;;;3.88;3.58;;;14.80;42.30;;;;;;5076374;28;20206;-70
2022/01/12 04:26:37;;;;;;;3.70;3.40;;;14.80;42.20;;;;;;5075947;28;20209;-72
2022/01/12 04:29:06;;;;;;;3.83;3.50;;;14.80;42.00;;;;;;5076379;28;20229;-70
2022/01/12 04:31:35;;;;;;;3.70;3.40;;;14.80;42.10;;;;;;5076049;28;20554;-70
2022/01/12 04:34:02;;;;;;;3.50;3.20;;;14.80;41.80;;;;;;5075908;28;20252;-68
2022/01/12 04:36:30;;;;;;;3.90;3.58;;;14.80;41.80;;;;;;5075764;28;20202;-68
2022/01/12 04:38:57;;;;;;;3.72;3.42;;;14.80;41.60;;;;;;5075954;28;20221;-71
2022/01/12 04:41:24;;;;;;;3.92;3.63;;;14.70;41.60;;;;;;5075909;28;20241;-70
2022/01/12 04:43:52;;;;;;;3.97;3.63;;;14.80;41.60;;;;;;5075995;28;20284;-70
2022/01/12 04:46:32;;;;;;;3.97;3.67;;;14.90;42.50;;;;;;5075807;28;20407;-71
2022/01/12 04:51:52;;;;;;;3.65;3.35;;;14.90;41.70;;;;;;5060779;28;20194;-71
2022/01/12 04:54:19;;;;;;;3.78;3.47;;;14.90;41.70;;;;;;5075591;28;20194;-71
2022/01/12 04:56:46;;;;;;;3.78;3.47;;;14.90;41.70;;;;;;5075699;28;20597;-70
2022/01/12 04:59:13;;;;;;;3.40;3.10;;;14.90;41.70;;;;;;5094073;28;20206;-72
2022/01/12 05:01:49;;;;;;;3.58;3.28;;;14.90;41.70;;;;;;5075716;28;20197;-70
2022/01/12 05:07:27;;;;;;;3.28;3.03;;;15.00;41.80;;;;;;5075827;28;20212;-70
2022/01/12 05:12:52;;;;;;;3.40;3.10;;;15.00;41.80;;;;;;5074916;28;20239;-71
2022/01/12 05:15:26;;;;;;;3.53;3.22;;;15.00;41.80;;;;;;5076759;28;20212;-68
2022/01/12 05:17:53;;;;;;;3.60;3.30;;;15.00;41.80;;;;;;5077056;28;20746;-70
2022/01/12 05:20:22;;;;;;;3.35;3.05;;;15.00;41.80;;;;;;5075749;28;20202;-68
2022/01/12 05:22:50;;;;;;;3.50;3.22;;;15.10;41.80;;;;;;5075362;28;20227;-71
2022/01/12 05:25:18;;;;;;;3.15;2.95;;;15.10;41.80;;;;;;5075542;28;20250;-70
2022/01/12 05:27:46;;;;;;;3.20;3.00;;;15.10;41.80;;;;;;5075385;28;20229;-70
2022/01/12 05:30:13;;;;;;;3.67;3.38;;;15.10;41.50;;;;;;5075204;28;20552;-69
2022/01/12 05:32:43;;;;;;;3.17;2.97;;;15.20;41.60;;;;;;5075765;28;20194;-68
2022/01/12 05:35:12;;;;;;;3.33;3.13;;;15.20;41.40;;;;;;5075284;28;20271;-71
2022/01/12 05:37:44;;;;;;;3.38;3.10;;;15.20;41.50;;;;;;5075172;28;20209;-71
2022/01/12 05:40:11;;;;;;;3.60;3.30;;;15.20;41.30;;;;;;5075667;28;20733;-71
2022/01/12 05:42:39;;;;;;;3.60;3.30;;;15.20;41.40;;;;;;5075746;28;20246;-71
2022/01/12 05:45:08;;;;;;;3.20;3.00;;;15.30;41.20;;;;;;5075166;28;20225;-70
2022/01/12 05:50:24;;;;;;;3.28;2.97;;;15.30;41.20;;;;;;5074141;28;20193;-71
2022/01/12 05:52:54;;;;;;;3.40;2.90;;;15.30;41.10;;;;;;5074931;28;20229;-71
2022/01/12 05:55:21;;;;;;;3.42;3.13;;;15.30;41.00;;;;;;5074869;28;20197;-71
2022/01/12 05:57:49;;;;;;;3.50;3.20;;;15.40;40.90;;;;;;5074889;28;20587;-71
2022/01/12 06:00:18;;;;;;;3.38;3.08;;;15.40;41.00;;;;;;5074652;28;20206;-71
2022/01/12 06:02:52;;;;;;;3.80;3.50;;;15.50;41.00;;;;;;5074904;28;20186;-70
2022/01/12 06:05:19;;;;;;;3.42;3.22;;;15.40;40.70;;;;;;5074927;28;20190;-68
2022/01/12 06:07:48;;;;;;;3.63;3.33;;;15.40;40.70;;;;;;5074527;28;20221;-72
2022/01/12 06:10:16;;;;;;;3.90;3.60;;;15.50;40.80;;;;;;5075074;28;20204;-71
2022/01/12 06:12:44;;;;;;;4.10;3.80;;;15.50;40.40;;;;;;5075258;28;20194;-70
2022/01/12 06:15:11;;;;;;;3.65;3.35;;;15.50;40.40;;;;;;5074709;28;20194;-70
2022/01/12 06:17:38;;;;;;;3.85;3.55;;;15.50;40.20;;;;;;5074682;28;20210;-70
2022/01/12 06:20:08;;;;;;;4.00;3.70;;;15.50;40.30;;;;;;5075105;28;20194;-71
2022/01/12 06:23:04;;;;;;;3.92;3.60;;;15.50;41.50;;;;;;5076426;28;20212;-70
2022/01/12 06:25:35;;;;;;;4.30;3.90;;;15.60;41.30;;;;;;5076695;28;20552;-71
2022/01/12 06:28:22;;;;;;;3.85;3.55;;;15.60;40.10;;;;;;5076395;28;20222;-72
2022/01/12 06:33:33;;;;;;;4.22;3.92;;;15.60;39.70;;;;;;5075003;28;20186;-70
2022/01/12 06:36:01;;;;;;;4.35;4.05;;;15.60;39.60;;;;;;5074403;28;20236;-69
2022/01/12 06:38:28;;;;;;;4.30;3.90;;;15.70;40.10;;;;;;5074584;28;20212;-72
2022/01/12 06:40:57;;;;;;;4.75;4.35;;;15.70;40.10;;;;;;5074343;28;20198;-70
2022/01/12 06:43:24;;;;;;;4.35;4.05;;;15.80;39.80;;;;;;5074188;28;20198;-69
2022/01/12 06:45:51;;;;;;;3.92;3.63;;;15.90;40.50;;;;;;5074540;28;20549;-71
2022/01/12 06:48:19;;;;;;;4.07;3.67;;;15.90;39.90;;;;;;5074651;28;20537;-71
2022/01/12 06:50:46;;;;;;;4.38;4.03;;;15.90;40.00;;;;;;5074239;28;20198;-70
2022/01/12 06:53:13;;;;;;;3.90;3.60;;;15.90;39.90;;;;;;5092568;28;20200;-71
2022/01/12 06:55:40;;;;;;;4.43;4.05;;;15.90;39.70;;;;;;5074996;28;20198;-71
2022/01/12 06:58:09;;;;;;;4.20;3.90;;;15.90;39.90;;;;;;5077806;28;20757;-71
2022/01/12 07:00:36;;;;;;;4.43;4.05;;;15.90;39.90;;;;;;5078038;28;20196;-69
2022/01/12 07:03:05;;;;;;;4.03;3.72;;;15.90;40.00;;;;;;5077815;28;20194;-67
2022/01/12 07:05:39;;;;;;;3.85;3.55;;;15.90;40.00;;;;;;5077882;28;20717;-70
2022/01/12 07:08:06;;;;;;;4.13;3.83;;;15.90;40.60;;;;;;5077677;28;20224;-69
2022/01/12 07:10:38;;;;;;;4.75;3.97;;;15.80;40.20;;;;;;5078139;28;20292;-70
2022/01/12 07:13:16;;;;;;;4.43;4.03;;;15.80;40.20;;;;;;5078140;28;20212;-71
2022/01/12 07:15:44;;;;;;;4.15;3.85;;;15.80;40.10;;;;;;5078552;28;20235;-72
2022/01/12 07:18:15;;;;;;;4.25;3.88;;;15.80;40.20;;;;;;5078240;28;20279;-73
2022/01/12 07:20:42;;;;;;;4.30;3.90;;;15.80;40.00;;;;;;5095787;28;20552;-72
2022/01/12 07:23:11;;;;;;;3.95;3.65;;;15.80;40.10;;;;;;5078347;28;20205;-71
2022/01/12 07:25:38;;;;;;;3.63;3.33;;;15.80;40.20;;;;;;5077760;28;20205;-70
2022/01/12 07:28:05;;;;;;;3.78;3.47;;;15.80;39.80;;;;;;5095690;28;20230;-72
2022/01/12 07:30:34;;;;;;;4.70;4.30;;;15.80;39.50;;;;;;5077122;28;20194;-69
2022/01/12 07:33:01;;;;;;;3.92;3.63;;;15.80;39.70;;;;;;5076892;28;20206;-68
2022/01/12 07:35:29;;;;;;;4.10;3.80;;;15.90;39.50;;;;;;5077142;28;20202;-69
2022/01/12 07:37:56;;;;;;;4.22;3.92;;;15.90;39.50;;;;;;5077460;28;20224;-69
2022/01/12 07:40:23;;;;;;;4.47;4.18;;;15.90;39.70;;;;;;5078920;28;20198;-70
2022/01/12 07:42:51;;;;;;;4.20;3.90;;;15.90;39.70;;;;;;5077542;28;20196;-69
2022/01/12 07:45:19;;;;;;;4.97;4.55;;;15.90;39.50;;;;;;5077874;28;20201;-71
2022/01/12 07:47:48;;;;;;;5.00;4.50;;;15.90;39.10;;;;;;5077690;28;20327;-71
2022/01/12 07:50:15;;;;;;;4.78;4.38;;;15.90;39.30;;;;;;5085998;28;20209;-70
2022/01/12 07:52:42;;;;;;;4.80;4.28;;;16.00;39.40;;;;;;5083326;28;20198;-70
2022/01/12 07:55:10;;;;;;;4.82;4.43;;;16.00;39.30;;;;;;5077786;28;20672;-70
2022/01/12 07:57:37;;;;;;;4.70;4.30;;;16.00;39.30;;;;;;5077200;28;20226;-72
2022/01/12 08:00:05;;;;;;;4.72;4.32;;;16.00;39.30;;;;;;5077158;28;20194;-70
2022/01/12 08:02:38;;;;;;;4.72;4.30;;;16.00;38.90;;;;;;5095331;28;20198;-72
2022/01/12 08:05:07;;;;;;;4.88;4.40;;;16.10;39.10;;;;;;5076997;28;20297;-70
2022/01/12 08:07:36;;;;;;;4.65;4.25;;;16.10;38.80;;;;;;5076841;28;20267;-71
2022/01/12 08:10:04;;;;;;;5.22;4.72;;;16.10;38.90;;;;;;5076284;28;20255;-70
2022/01/12 08:12:31;;;;;;;4.90;4.25;;;16.10;39.00;;;;;;5077316;28;20227;-72
2022/01/12 08:14:58;;;;;;;4.80;4.32;;;16.10;39.10;;;;;;5077417;28;20209;-72
2022/01/12 08:17:25;;;;;;;4.45;4.05;;;16.10;38.80;;;;;;5077123;28;20327;-69
2022/01/12 08:19:55;;;;;;;5.53;4.53;;;16.10;39.10;;;;;;5077741;28;20190;-71
2022/01/12 08:22:23;;;;;;;4.60;4.20;;;16.20;38.70;;;;;;5078493;28;20209;-71
2022/01/12 08:24:50;;;;;;;4.88;4.13;;;16.20;38.90;;;;;;5077444;28;20278;-71
2022/01/12 08:27:17;;;;;;;5.35;4.88;;;16.20;38.70;;;;;;5077393;28;20326;-71
2022/01/12 08:29:44;;;;;;;4.50;4.10;;;16.20;38.50;;;;;;5076698;28;20221;-69
2022/01/12 08:32:12;;;;;;;4.88;4.47;;;16.20;38.60;;;;;;5076760;28;20235;-72
2022/01/12 08:34:39;;;;;;;5.30;4.38;;;16.30;38.70;;;;;;5077513;28;20200;-71
2022/01/12 08:37:06;;;;;;;5.68;5.18;;;16.30;38.80;;;;;;5076566;28;20198;-70
2022/01/12 08:39:35;;;;;;;5.70;5.20;;;16.30;38.60;;;;;;5076486;28;20198;-72
2022/01/12 08:42:02;;;;;;;5.95;5.45;;;16.30;38.60;;;;;;5076196;28;20247;-73
2022/01/12 08:44:30;;;;;;;5.30;4.80;;;16.40;38.40;;;;;;5076180;28;20271;-71
2022/01/12 08:46:57;;;;;;;5.90;5.32;;;16.40;38.40;;;;;;5076198;28;20248;-71
2022/01/12 08:49:24;;;;;;;6.30;5.72;;;16.50;38.50;;;;;;5075893;28;20232;-72
2022/01/12 08:51:51;;;;;;;5.68;5.18;;;16.50;38.40;;;;;;5075714;28;20202;-73
2022/01/12 08:54:18;;;;;;;5.30;4.90;;;16.50;38.60;;;;;;5093797;28;20217;-68
2022/01/12 08:56:47;;;;;;;5.20;4.80;;;16.50;38.20;;;;;;5075545;28;20255;-69
2022/01/12 08:59:15;;;;;;;5.38;4.90;;;16.60;38.30;;;;;;5075609;28;20214;-72
2022/01/12 09:01:43;;;;;;;5.22;4.82;;;16.60;38.20;;;;;;5075318;28;20206;-72
2022/01/12 09:04:10;;;;;;;5.38;4.88;;;16.60;38.30;;;;;;5075354;28;20193;-70
2022/01/12 09:06:37;;;;;;;5.22;4.72;;;16.60;38.20;;;;;;5075848;28;20719;-70
2022/01/12 09:09:05;;;;;;;5.15;4.65;;;16.60;38.20;;;;;;5075109;28;20221;-71
2022/01/12 09:11:32;;;;;;;5.20;4.70;;;16.60;38.20;;;;;;5075584;28;20198;-71
2022/01/12 09:14:01;;;;;;;6.00;5.30;;;16.60;38.00;;;;;;5075622;28;20250;-69
2022/01/12 09:16:28;;;;;;;5.45;4.95;;;16.60;38.20;;;;;;5075354;28;20600;-71
2022/01/12 09:18:56;;;;;;;5.20;4.70;;;16.60;38.30;;;;;;5075198;28;20206;-72
2022/01/12 09:21:23;;;;;;;5.82;5.20;;;16.60;38.20;;;;;;5074487;28;20194;-71
2022/01/12 09:23:50;;;;;;;5.25;4.75;;;16.60;38.00;;;;;;5076087;28;20202;-71
2022/01/12 09:26:18;;;;;;;5.60;5.10;;;16.60;38.30;;;;;;5076481;28;20206;-70
2022/01/12 09:28:46;;;;;;;5.43;4.93;;;16.60;38.50;;;;;;5094438;28;20760;-73
2022/01/12 09:31:14;;;;;;;5.80;5.30;;;16.60;38.20;;;;;;5075238;28;20202;-71
2022/01/12 09:33:41;;;;;;;5.18;4.68;;;16.60;38.30;;;;;;5075459;28;20288;-69
2022/01/12 09:36:09;;;;;;;5.80;5.30;;;16.60;38.20;;;;;;5075262;28;20251;-71
2022/01/12 09:38:36;;;;;;;5.57;5.10;;;16.60;38.40;;;;;;5074810;28;20221;-71
2022/01/12 09:41:04;;;;;;;5.65;5.15;;;16.60;38.10;;;;;;5074773;28;20657;-71
2022/01/12 09:43:34;;;;;;;5.97;5.40;;;16.60;38.20;;;;;;5075066;28;20292;-71
2022/01/12 09:46:00;;;;;;;5.47;5.07;;;16.60;38.00;;;;;;5074883;28;20678;-69
2022/01/12 09:48:33;;;;;;;5.45;4.93;;;16.60;38.00;;;;;;5074738;28;20781;-72
2022/01/12 09:51:04;;;;;;;5.10;4.65;;;16.60;38.00;;;;;;5074870;28;20606;-69
2022/01/12 09:53:32;;;;;;;5.45;4.60;;;16.60;38.10;;;;;;5074700;28;20296;-72
2022/01/12 09:55:59;;;;;;;5.60;5.10;;;16.60;38.40;;;;;;5092931;28;20209;-70
2022/01/12 09:58:28;;;;;;;4.72;4.32;;;16.70;37.90;;;;;;5074756;28;20263;-71
2022/01/12 10:00:58;;;;;;;5.30;4.90;;;16.70;38.10;;;;;;5093199;28;20576;-69
2022/01/12 10:03:25;;;;;;;4.40;4.00;;;16.70;38.10;;;;;;5074934;28;20210;-70
2022/01/12 10:05:53;;;;;;;5.70;5.20;;;16.70;38.00;;;;;;5075235;28;20201;-71
2022/01/12 10:08:20;;;;;;;5.78;5.03;;;16.80;37.60;;;;;;5074920;28;20279;-70
2022/01/12 10:11:01;;;;;;;6.22;4.80;;;16.80;37.80;;;;;;5074797;28;20251;-70
2022/01/12 10:13:28;;;;;;;5.60;5.10;;;16.80;37.50;;;;;;5074664;28;20193;-68
2022/01/12 10:15:55;;;;;;;5.03;4.63;;;16.80;37.60;;;;;;5074889;28;20201;-69
2022/01/12 10:18:23;;;;;;;5.13;4.68;;;16.80;37.30;;;;;;5074498;28;20299;-72
2022/01/12 10:20:51;;;;;;;4.95;4.55;;;16.80;38.10;;;;;;5074489;28;20214;-71
2022/01/12 10:23:22;;;;;;;4.90;4.50;;;16.90;37.50;;;;;;5074579;28;20200;-69
2022/01/12 10:25:50;;;;;;;5.38;4.95;;;16.90;37.50;;;;;;5081644;28;20210;-70
2022/01/12 10:28:18;;;;;;;4.82;4.43;;;16.90;37.10;;;;;;5081919;28;20218;-72
2022/01/12 10:30:55;;;;;;;5.20;4.55;;;16.90;37.30;;;;;;5074643;28;20642;-72
2022/01/12 10:33:24;;;;;;;4.80;4.40;;;16.90;37.30;;;;;;5077973;28;20197;-70
2022/01/12 10:35:55;;;;;;;5.30;4.65;;;16.90;37.30;;;;;;5078644;28;20266;-71
2022/01/12 10:38:23;;;;;;;5.35;4.95;;;16.90;37.40;;;;;;5078005;28;20221;-68
2022/01/12 10:40:51;;;;;;;6.22;5.20;;;17.00;38.00;;;;;;5096175;28;20190;-69
2022/01/12 10:43:28;;;;;;;5.13;4.55;;;17.00;36.90;;;;;;5096067;28;20197;-72
2022/01/12 10:45:55;;;;;;;5.05;4.65;;;17.00;37.10;;;;;;5096138;28;20201;-71
2022/01/12 10:48:23;;;;;;;5.50;5.00;;;17.00;36.90;;;;;;5077925;28;20217;-70
2022/01/12 10:50:54;;;;;;;5.53;5.03;;;17.00;36.80;;;;;;5077616;28;20229;-71
2022/01/12 10:53:31;;;;;;;5.55;5.05;;;17.00;36.80;;;;;;5077754;28;20225;-73
2022/01/12 10:56:06;;;;;;;5.20;4.70;;;17.00;36.90;;;;;;5096080;28;20178;-71
2022/01/12 10:58:33;;;;;;;4.50;4.10;;;17.00;36.80;;;;;;5077905;28;20271;-72
2022/01/12 11:01:00;;;;;;;4.40;4.10;;;17.00;37.10;;;;;;5077858;28;20617;-71
2022/01/12 11:03:27;;;;;;;4.50;4.10;;;17.00;37.30;;;;;;5077721;28;20248;-71
2022/01/12 11:05:55;;;;;;;5.07;4.68;;;17.00;36.90;;;;;;5077513;28;20194;-71
2022/01/12 11:08:24;;;;;;;5.13;4.63;;;17.10;36.80;;;;;;5077658;28;20339;-72
2022/01/12 11:10:53;;;;;;;5.57;5.05;;;17.10;37.00;;;;;;5077653;28;20210;-71
2022/01/12 11:13:20;;;;;;;4.95;4.55;;;17.10;36.80;;;;;;5077482;28;20198;-71
2022/01/12 11:15:47;;;;;;;4.93;4.53;;;17.10;37.20;;;;;;5095386;28;20186;-70
2022/01/12 11:18:14;;;;;;;5.30;4.80;;;17.10;37.40;;;;;;5077640;28;20705;-72
2022/01/12 11:20:42;;;;;;;4.55;4.15;;;17.10;37.10;;;;;;5077608;28;20295;-71
2022/01/12 11:23:11;;;;;;;5.00;4.60;;;17.10;37.20;;;;;;5078647;28;20544;-70
2022/01/12 11:25:39;;;;;;;5.05;4.65;;;17.10;36.90;;;;;;5095821;28;20194;-70
2022/01/12 11:28:12;;;;;;;4.43;4.13;;;17.20;37.10;;;;;;5095493;28;20293;-71
2022/01/12 11:30:59;;;;;;;5.00;4.50;;;17.20;37.30;;;;;;5077056;28;20651;-70
2022/01/12 11:33:37;;;;;;;4.95;4.55;;;17.20;37.80;;;;;;5077126;28;20198;-72
2022/01/12 11:36:06;;;;;;;5.38;4.97;;;17.20;37.20;;;;;;5077143;28;20294;-71
2022/01/12 11:38:35;;;;;;;4.30;4.00;;;17.20;37.00;;;;;;5077203;28;20226;-72
2022/01/12 11:41:10;;;;;;;4.57;4.18;;;17.20;37.10;;;;;;5095059;28;20719;-73
2022/01/12 11:43:43;;;;;;;4.97;4.57;;;17.20;37.10;;;;;;5075809;28;20189;-70
2022/01/12 11:46:12;;;;;;;4.57;4.28;;;17.30;37.30;;;;;;5094970;28;20191;-70
2022/01/12 11:48:42;;;;;;;4.85;4.35;;;17.30;36.90;;;;;;5077040;28;20224;-69
2022/01/12 11:51:10;;;;;;;4.22;3.92;;;17.30;36.80;;;;;;5076617;28;20294;-70
2022/01/12 11:53:52;;;;;;;4.03;3.72;;;17.30;36.80;;;;;;5076791;28;20229;-69
2022/01/12 11:56:20;;;;;;;4.60;4.20;;;17.40;36.90;;;;;;5074410;28;20216;-68
2022/01/12 11:58:54;;;;;;;5.25;4.75;;;17.40;36.90;;;;;;5076599;28;20218;-72
2022/01/12 12:01:22;;;;;;;5.10;4.32;;;17.50;36.80;;;;;;5076740;28;20286;-69
2022/01/12 12:03:59;;;;;;;4.30;4.00;;;17.50;36.70;;;;;;5076445;28;20194;-72
2022/01/12 12:06:26;;;;;;;5.40;4.90;;;17.60;36.90;;;;;;5076558;28;20193;-70
2022/01/12 12:08:58;;;;;;;4.90;4.50;;;17.60;36.90;;;;;;5076410;28;20222;-71
2022/01/12 12:11:27;;;;;;;4.57;4.18;;;17.60;36.50;;;;;;5076210;28;20581;-69
2022/01/12 12:14:00;;;;;;;5.18;4.57;;;17.70;36.60;;;;;;5076295;28;20194;-70
2022/01/12 12:16:27;;;;;;;4.97;4.57;;;17.70;37.30;;;;;;5076371;28;20213;-70
2022/01/12 12:18:55;;;;;;;5.25;4.75;;;17.70;36.40;;;;;;5076019;28;20587;-69
2022/01/12 12:21:22;;;;;;;5.50;5.10;;;17.70;36.10;;;;;;5076673;28;20198;-72
2022/01/12 12:23:53;;;;;;;4.97;4.53;;;17.80;36.40;;;;;;5076200;28;20193;-72
2022/01/12 12:26:20;;;;;;;4.60;4.20;;;17.80;36.50;;;;;;5076420;28;20205;-71
2022/01/12 12:28:54;;;;;;;4.88;4.47;;;17.70;36.20;;;;;;5076077;28;20213;-71
2022/01/12 12:31:23;;;;;;;5.13;4.63;;;17.80;36.20;;;;;;5076061;28;20209;-70
2022/01/12 12:34:00;;;;;;;4.90;4.50;;;17.80;36.90;;;;;;5075840;28;20606;-70
2022/01/12 12:36:29;;;;;;;4.25;3.95;;;17.90;36.30;;;;;;5094114;28;20182;-71
2022/01/12 12:39:06;;;;;;;3.90;3.60;;;17.90;36.30;;;;;;5094259;28;20217;-70
2022/01/12 12:41:39;;;;;;;4.55;4.05;;;17.90;36.40;;;;;;5075986;28;20201;-68
2022/01/12 12:44:07;;;;;;;3.95;3.67;;;17.90;36.20;;;;;;5075879;28;20646;-70
2022/01/12 12:46:36;;;;;;;4.88;4.47;;;17.90;37.10;;;;;;5075965;28;20194;-68
2022/01/12 12:49:09;;;;;;;5.25;4.85;;;17.90;36.30;;;;;;5075595;28;20218;-70
2022/01/12 12:51:36;;;;;;;4.80;4.40;;;17.90;36.20;;;;;;5093892;28;20210;-70
2022/01/12 12:54:04;;;;;;;5.43;4.93;;;18.00;36.30;;;;;;5075677;28;20198;-70
2022/01/12 12:56:40;;;;;;;4.88;4.47;;;17.90;35.80;;;;;;5075480;28;20222;-69
2022/01/12 12:59:08;;;;;;;5.05;4.60;;;18.00;36.20;;;;;;5075321;28;20245;-69
2022/01/12 13:01:37;;;;;;;6.38;5.00;;;18.00;36.00;;;;;;5075266;28;20284;-68
2022/01/12 13:04:05;;;;;;;4.80;4.50;;;18.00;36.20;;;;;;5075386;28;20194;-72
2022/01/12 13:06:32;;;;;;;3.97;3.67;;;18.00;36.40;;;;;;5075082;28;20561;-70
2022/01/12 13:09:02;;;;;;;4.72;4.32;;;18.10;36.30;;;;;;5075407;28;20217;-70
2022/01/12 13:11:30;;;;;;;4.65;4.25;;;18.10;36.60;;;;;;5093334;28;20202;-70
2022/01/12 13:13:58;;;;;;;4.80;4.40;;;18.10;36.50;;;;;;5075288;28;20189;-70
2022/01/12 13:16:26;;;;;;;5.28;4.78;;;18.10;36.20;;;;;;5075753;28;20201;-72
2022/01/12 13:19:04;;;;;;;5.32;4.93;;;18.10;36.60;;;;;;5076125;28;20234;-72
2022/01/12 13:21:33;;;;;;;5.15;4.75;;;18.10;36.20;;;;;;5076606;28;20202;-70
2022/01/12 13:24:00;;;;;;;5.57;5.05;;;18.10;35.90;;;;;;5076570;28;20200;-72
2022/01/12 13:26:31;;;;;;;5.35;4.85;;;18.10;35.50;;;;;;5075583;28;20275;-72
2022/01/12 13:28:58;;;;;;;5.13;4.72;;;18.10;35.90;;;;;;5076375;28;20225;-71
2022/01/12 13:31:25;;;;;;;5.03;4.63;;;18.10;36.30;;;;;;5075515;28;20222;-71
2022/01/12 13:33:53;;;;;;;9.77;4.68;;;18.10;36.40;;;;;;5075020;28;20190;-70
2022/01/12 13:36:22;;;;;;;5.20;4.75;;;18.10;37.30;;;;;;5075222;28;20205;-69
2022/01/12 13:38:54;;;;;;;5.43;4.85;;;18.10;37.00;;;;;;5076395;28;20236;-71
2022/01/12 13:41:22;;;;;;;5.82;5.15;;;18.10;36.90;;;;;;5074958;28;20231;-68
2022/01/12 13:43:54;;;;;;;6.28;4.18;;;18.10;36.80;;;;;;5093178;28;20225;-72
2022/01/12 13:46:29;;;;;;;4.93;4.45;;;18.10;37.00;;;;;;5075401;28;20201;-71
2022/01/12 13:49:21;;;;;;;5.57;4.45;;;18.10;36.90;;;;;;5075220;28;20681;-67
2022/01/12 13:52:00;;;;;;;5.43;4.88;;;18.20;37.10;;;;;;5093191;28;20167;-69
2022/01/12 13:54:29;;;;;;;5.53;4.97;;;18.10;37.20;;;;;;5075096;28;20634;-71
2022/01/12 13:56:56;;;;;;;5.38;4.60;;;18.10;36.90;;;;;;5075222;28;20209;-71
2022/01/12 13:59:25;;;;;;;5.03;4.53;;;18.10;37.00;;;;;;5075139;28;20309;-72
2022/01/12 14:01:52;;;;;;;6.28;4.47;;;18.10;37.20;;;;;;5075340;28;20209;-69
2022/01/12 14:04:30;;;;;;;5.40;4.40;;;18.10;37.30;;;;;;5075428;28;20289;-69
2022/01/12 14:07:01;;;;;;;4.82;4.43;;;18.10;37.90;;;;;;5077065;28;20253;-70
2022/01/12 14:09:31;;;;;;;5.50;4.75;;;18.10;37.10;;;;;;5079158;28;20281;-72
2022/01/12 14:12:07;;;;;;;6.32;5.63;;;18.10;37.00;;;;;;5081162;28;20210;-72